createdAt,value
2023-01-11T00:01:56.706Z,1.38
2023-01-11T00:04:33.811Z,1.35
2023-01-11T00:07:04.254Z,1.80
2023-01-11T00:09:33.906Z,1.52
2023-01-11T00:12:04.193Z,1.20
2023-01-11T00:14:38.398Z,1.10
2023-01-11T00:17:16.504Z,1.05
2023-01-11T00:19:53.055Z,1.00
2023-01-11T00:22:23.686Z,0.85
2023-01-11T00:24:54.231Z,1.52
2023-01-11T00:30:19.183Z,0.90
2023-01-11T00:32:47.117Z,1.15
2023-01-11T00:35:14.490Z,0.90
2023-01-11T00:37:47.493Z,1.27
2023-01-11T00:40:17.220Z,1.02
2023-01-11T00:43:02.490Z,0.95
2023-01-11T00:45:50.839Z,1.30
2023-01-11T00:48:18.591Z,0.90
2023-01-11T00:50:46.645Z,1.15
2023-01-11T00:53:18.591Z,1.10
2023-01-11T00:55:50.341Z,1.40
2023-01-11T00:58:17.294Z,0.88
2023-01-11T01:00:50.705Z,1.00
2023-01-11T01:03:17.734Z,1.30
2023-01-11T01:05:47.131Z,1.00
2023-01-11T01:08:20.127Z,0.90
2023-01-11T01:10:48.022Z,1.00
2023-01-11T01:13:33.070Z,0.80
2023-01-11T01:16:06.011Z,1.05
2023-01-11T01:18:36.334Z,1.10
2023-01-11T01:21:05.866Z,0.95
2023-01-11T01:23:33.229Z,1.38
2023-01-11T01:26:06.064Z,1.25
2023-01-11T01:28:36.055Z,1.27
2023-01-11T01:31:08.621Z,1.38
2023-01-11T01:33:39.035Z,1.08
2023-01-11T01:36:12.561Z,1.08
2023-01-11T01:38:42.447Z,1.00
2023-01-11T01:41:14.313Z,1.13
2023-01-11T01:43:54.631Z,0.90
2023-01-11T01:46:32.835Z,0.80
2023-01-11T01:49:09.198Z,0.88
2023-01-11T01:51:42.356Z,1.00
2023-01-11T01:54:12.819Z,0.80
2023-01-11T01:56:49.093Z,1.00
2023-01-11T01:59:17.292Z,0.70
2023-01-11T02:01:56.914Z,0.80
2023-01-11T02:04:28.597Z,0.82
2023-01-11T02:06:59.263Z,0.60
2023-01-11T02:09:31.487Z,0.70
2023-01-11T02:12:01.407Z,0.70
2023-01-11T02:14:31.988Z,0.80
2023-01-11T02:17:04.830Z,1.00
2023-01-11T02:19:50.251Z,0.80
2023-01-11T02:22:23.252Z,0.80
2023-01-11T02:25:03.869Z,0.88
2023-01-11T02:27:49.558Z,0.85
2023-01-11T02:30:34.855Z,1.15
2023-01-11T02:33:02.471Z,0.80
2023-01-11T02:35:50.451Z,0.73
2023-01-11T02:38:50.150Z,0.65
2023-01-11T02:41:21.826Z,0.80
2023-01-11T02:44:14.487Z,1.10
2023-01-11T02:46:58.248Z,1.25
2023-01-11T02:49:41.403Z,1.10
2023-01-11T02:52:18.252Z,1.23
2023-01-11T02:54:45.858Z,0.82
2023-01-11T02:57:17.487Z,0.90
2023-01-11T02:59:49.381Z,0.93
2023-01-11T03:02:19.313Z,1.00
2023-01-11T03:04:52.501Z,0.90
2023-01-11T03:07:32.012Z,0.93
2023-01-11T03:10:11.232Z,0.90
2023-01-11T03:12:56.922Z,1.15
2023-01-11T03:15:42.489Z,1.08
2023-01-11T03:18:22.130Z,1.15
2023-01-11T03:20:59.340Z,0.70
2023-01-11T03:23:37.872Z,0.95
2023-01-11T03:26:22.257Z,0.77
2023-01-11T03:29:01.042Z,0.93
2023-01-11T03:31:35.408Z,0.65
2023-01-11T03:34:20.806Z,0.60
2023-01-11T03:37:02.185Z,0.93
2023-01-11T03:39:41.339Z,0.70
2023-01-11T03:42:11.335Z,0.80
2023-01-11T03:44:46.834Z,0.90
2023-01-11T03:47:19.066Z,1.05
2023-01-11T03:49:52.255Z,1.00
2023-01-11T03:52:25.973Z,0.90
2023-01-11T03:54:58.374Z,0.90
2023-01-11T03:57:38.374Z,0.70
2023-01-11T04:00:08.813Z,1.38
2023-01-11T04:02:36.719Z,0.75
2023-01-11T04:05:07.422Z,0.65
2023-01-11T04:07:34.451Z,0.80
2023-01-11T04:10:07.278Z,0.80
2023-01-11T04:12:37.825Z,0.95
2023-01-11T04:15:11.180Z,1.38
2023-01-11T04:17:39.976Z,0.93
2023-01-11T04:20:13.992Z,0.90
2023-01-11T04:22:44.501Z,0.88
2023-01-11T04:25:14.744Z,0.90
2023-01-11T04:27:46.496Z,0.60
2023-01-11T04:30:18.951Z,0.85
2023-01-11T04:32:46.375Z,0.73
2023-01-11T04:35:20.101Z,1.05
2023-01-11T04:37:49.860Z,0.80
2023-01-11T04:40:22.043Z,0.70
2023-01-11T04:42:56.909Z,0.90
2023-01-11T04:45:27.650Z,1.02
2023-01-11T04:47:58.476Z,0.80
2023-01-11T04:50:29.545Z,0.88
2023-01-11T04:53:00.945Z,1.02
2023-01-11T04:55:31.241Z,0.80
2023-01-11T04:58:01.558Z,0.80
2023-01-11T05:00:30.305Z,0.80
2023-01-11T05:03:01.719Z,0.70
2023-01-11T05:05:31.292Z,0.90
2023-01-11T05:08:02.981Z,0.80
2023-01-11T05:10:33.094Z,0.90
2023-01-11T05:13:03.131Z,0.80
2023-01-11T05:15:33.347Z,0.70
2023-01-11T05:18:00.548Z,0.70
2023-01-11T05:20:30.491Z,1.20
2023-01-11T05:23:04.983Z,1.00
2023-01-11T05:25:36.797Z,0.77
2023-01-11T05:28:10.620Z,0.88
2023-01-11T05:30:41.376Z,0.85
2023-01-11T05:33:14.211Z,1.13
2023-01-11T05:35:44.208Z,0.95
2023-01-11T05:38:12.916Z,0.95
2023-01-11T05:40:45.603Z,1.00
2023-01-11T05:43:21.228Z,1.20
2023-01-11T05:45:48.290Z,1.00
2023-01-11T05:48:18.625Z,1.00
2023-01-11T05:50:52.734Z,1.02
2023-01-11T05:53:20.051Z,0.70
2023-01-11T05:55:57.088Z,0.73
2023-01-11T05:58:27.769Z,0.82
2023-01-11T06:00:58.292Z,1.00
2023-01-11T06:03:26.133Z,1.05
2023-01-11T06:05:53.611Z,1.02
2023-01-11T06:08:26.850Z,0.90
2023-01-11T06:11:00.770Z,0.85
2023-01-11T06:13:30.693Z,1.20
2023-01-11T06:16:08.780Z,1.05
2023-01-11T06:18:39.738Z,0.88
2023-01-11T06:21:09.705Z,1.05
2023-01-11T06:23:40.836Z,1.10
2023-01-11T06:26:15.394Z,1.08
2023-01-11T06:28:45.897Z,1.10
2023-01-11T06:31:15.467Z,1.33
2023-01-11T06:33:50.311Z,1.67
2023-01-11T06:36:20.488Z,1.30
2023-01-11T06:38:51.206Z,1.30
2023-01-11T06:41:24.259Z,1.13
2023-01-11T06:43:54.521Z,1.15
2023-01-11T06:46:28.915Z,0.93
2023-01-11T06:48:59.646Z,0.95
2023-01-11T06:51:29.871Z,1.30
2023-01-11T06:53:56.928Z,1.00
2023-01-11T06:56:27.089Z,0.88
2023-01-11T06:58:54.065Z,1.23
2023-01-11T07:01:25.226Z,0.80
2023-01-11T07:03:58.349Z,0.90
2023-01-11T07:06:25.945Z,0.82
2023-01-11T07:09:01.973Z,1.10
2023-01-11T07:11:29.285Z,0.90
2023-01-11T07:13:57.689Z,0.88
2023-01-11T07:16:27.929Z,1.08
2023-01-11T07:18:58.467Z,1.20
2023-01-11T07:21:30.841Z,1.70
2023-01-11T07:24:02.167Z,2.00
2023-01-11T07:26:33.447Z,2.08
2023-01-11T07:29:03.667Z,1.70
2023-01-11T07:31:34.057Z,1.50
2023-01-11T07:34:04.836Z,1.45
2023-01-11T07:36:40.021Z,2.03
2023-01-11T07:39:10.937Z,1.52
2023-01-11T07:41:55.963Z,1.95
2023-01-11T07:44:23.332Z,1.50
2023-01-11T07:46:53.508Z,1.63
2023-01-11T07:49:23.501Z,1.80
2023-01-11T07:51:55.847Z,1.65
2023-01-11T07:54:29.046Z,1.63
2023-01-11T07:56:58.650Z,1.70
2023-01-11T07:59:30.775Z,1.48
2023-01-11T08:01:58.034Z,1.70
2023-01-11T08:04:28.373Z,2.30
2023-01-11T08:06:55.366Z,1.63
2023-01-11T08:09:22.781Z,1.55
2023-01-11T08:12:11.010Z,1.65
2023-01-11T08:14:50.130Z,1.52
2023-01-11T08:17:21.358Z,1.42
2023-01-11T08:19:52.184Z,1.38
2023-01-11T08:22:23.446Z,1.42
2023-01-11T08:24:50.943Z,1.67
2023-01-11T08:27:23.347Z,1.58
2023-01-11T08:29:53.693Z,1.45
2023-01-11T08:32:27.054Z,1.65
2023-01-11T08:34:53.986Z,1.25
2023-01-11T08:37:21.288Z,2.28
2023-01-11T08:39:49.677Z,1.73
2023-01-11T08:42:20.051Z,1.45
2023-01-11T08:44:52.706Z,2.15
2023-01-11T08:47:23.314Z,1.95
2023-01-11T08:49:53.403Z,1.45
2023-01-11T08:52:23.721Z,1.67
2023-01-11T08:54:56.741Z,1.35
2023-01-11T08:57:24.342Z,1.00
2023-01-11T08:59:51.249Z,1.10
2023-01-11T09:02:18.658Z,0.68
2023-01-11T09:04:49.745Z,1.08
2023-01-11T09:07:17.787Z,1.30
2023-01-11T09:09:50.944Z,0.70
2023-01-11T09:12:18.486Z,0.90
2023-01-11T09:14:48.441Z,1.27
2023-01-11T09:17:21.538Z,0.90
2023-01-11T09:19:51.233Z,0.60
2023-01-11T09:22:25.907Z,1.50
2023-01-11T09:25:00.347Z,1.20
2023-01-11T09:27:32.865Z,1.40
2023-01-11T09:30:03.382Z,1.70
2023-01-11T09:32:33.700Z,1.88
2023-01-11T09:35:05.565Z,2.13
2023-01-11T09:37:45.407Z,2.10
2023-01-11T09:40:26.650Z,2.00
2023-01-11T09:43:01.752Z,1.73
2023-01-11T09:45:31.563Z,1.55
2023-01-11T09:48:11.466Z,1.95
2023-01-11T09:50:48.919Z,1.80
2023-01-11T09:53:22.653Z,2.15
2023-01-11T09:55:55.135Z,1.70
2023-01-11T09:58:36.966Z,2.05
2023-01-11T10:01:08.172Z,1.75
2023-01-11T10:04:00.070Z,2.00
2023-01-11T10:06:27.485Z,2.20
2023-01-11T10:18:25.907Z,1.63
2023-01-11T10:18:43.125Z,1.52
2023-01-11T10:21:13.566Z,1.50
2023-01-11T10:23:49.840Z,1.70
2023-01-11T10:26:40.637Z,1.63
2023-01-11T10:29:42.791Z,1.48
2023-01-11T10:32:36.407Z,1.35
2023-01-11T10:35:29.419Z,1.42
2023-01-11T10:38:11.561Z,1.30
2023-01-11T10:41:00.501Z,1.42
2023-01-11T10:43:35.767Z,2.10
2023-01-11T10:46:12.722Z,1.58
2023-01-11T10:48:41.365Z,1.95
2023-01-11T10:51:20.679Z,1.80
2023-01-11T10:53:50.652Z,1.65
2023-01-11T10:56:28.193Z,1.45
2023-01-11T10:58:55.357Z,1.33
2023-01-11T11:01:36.963Z,2.10
2023-01-11T11:04:13.562Z,1.63
2023-01-11T11:06:50.660Z,1.48
2023-01-11T11:09:26.561Z,1.60
2023-01-11T11:12:04.875Z,1.58
2023-01-11T11:14:48.645Z,1.10
2023-01-11T11:17:27.796Z,1.10
2023-01-11T11:19:59.341Z,1.23
2023-01-11T11:22:31.922Z,1.27
2023-01-11T11:25:04.374Z,1.20
2023-01-11T11:27:41.430Z,1.42
2023-01-11T11:30:15.022Z,0.98
2023-01-11T11:32:55.681Z,1.20
2023-01-11T11:35:34.647Z,1.23
2023-01-11T11:38:02.112Z,1.10
2023-01-11T11:40:34.390Z,1.30
2023-01-11T11:43:19.732Z,0.98
2023-01-11T11:46:00.523Z,1.05
2023-01-11T11:48:31.491Z,0.90
2023-01-11T11:51:03.257Z,1.30
2023-01-11T11:53:35.263Z,1.65
2023-01-11T11:56:15.057Z,1.50
2023-01-11T11:58:45.480Z,1.63
2023-01-11T12:01:35.291Z,1.13
2023-01-11T12:04:22.471Z,1.35
2023-01-11T12:07:12.506Z,1.13
2023-01-11T12:09:45.402Z,1.55
2023-01-11T12:12:20.920Z,1.33
2023-01-11T12:15:06.268Z,1.80
2023-01-11T12:17:37.373Z,1.58
2023-01-11T12:20:27.873Z,1.73
2023-01-11T12:23:13.070Z,2.13
2023-01-11T12:26:02.641Z,2.33
2023-01-11T12:28:50.404Z,1.83
2023-01-11T12:31:36.150Z,1.70
2023-01-11T12:34:38.141Z,1.58
2023-01-11T12:37:14.331Z,1.65
2023-01-11T12:39:47.124Z,1.10
2023-01-11T12:42:14.087Z,1.40
2023-01-11T12:45:20.195Z,1.23
2023-01-11T12:48:05.177Z,0.95
2023-01-11T12:50:46.077Z,0.90
2023-01-11T12:53:21.851Z,0.68
2023-01-11T12:56:05.645Z,0.70
2023-01-11T12:58:53.951Z,0.70
2023-01-11T13:01:30.259Z,0.50
2023-01-11T13:04:21.455Z,0.50
2023-01-11T13:07:06.849Z,0.60
2023-01-11T13:09:36.916Z,0.73
2023-01-11T13:12:27.858Z,0.50
2023-01-11T13:15:12.291Z,0.60
2023-01-11T13:17:51.472Z,0.60
2023-01-11T13:20:58.660Z,0.70
2023-01-11T13:23:40.294Z,0.60
2023-01-11T13:26:17.232Z,0.50
2023-01-11T13:28:52.851Z,0.63
2023-01-11T13:31:26.485Z,0.80
2023-01-11T13:33:59.536Z,0.60
2023-01-11T13:36:33.772Z,0.77
2023-01-11T13:39:09.437Z,0.65
2023-01-11T13:41:43.886Z,0.68
2023-01-11T13:44:36.386Z,0.57
2023-01-11T13:47:13.854Z,0.50
2023-01-11T13:49:59.299Z,0.70
2023-01-11T13:52:35.367Z,0.77
2023-01-11T13:55:14.433Z,0.52
2023-01-11T13:58:01.715Z,0.60
2023-01-11T14:00:38.959Z,0.50
2023-01-11T14:03:18.537Z,0.47
2023-01-11T14:06:09.008Z,0.60
2023-01-11T14:08:40.287Z,0.57
2023-01-11T14:11:23.685Z,0.68
2023-01-11T14:14:13.516Z,0.52
2023-01-11T14:16:53.934Z,0.80
2023-01-11T14:19:44.012Z,0.73
2023-01-11T14:22:20.126Z,0.70
2023-01-11T14:24:56.006Z,0.60
2023-01-11T14:27:24.452Z,0.70
2023-01-11T14:29:59.651Z,0.65
2023-01-11T14:32:41.221Z,0.70
2023-01-11T14:35:26.524Z,0.70
2023-01-11T14:38:03.046Z,0.60
2023-01-11T14:40:54.605Z,0.60
2023-01-11T14:43:55.695Z,0.63
2023-01-11T14:46:33.892Z,0.60
2023-01-11T14:49:19.197Z,0.65
2023-01-11T14:51:55.646Z,0.40
2023-01-11T14:54:23.834Z,0.70
2023-01-11T14:57:02.927Z,0.57
2023-01-11T14:59:33.972Z,0.60
2023-01-11T15:02:10.554Z,0.60
2023-01-11T15:04:41.128Z,0.40
2023-01-11T15:07:28.368Z,0.50
2023-01-11T15:09:59.770Z,0.68
2023-01-11T15:12:38.989Z,0.60
2023-01-11T15:18:19.046Z,0.43
2023-01-11T15:21:06.666Z,0.60
2023-01-11T15:23:49.570Z,0.80
2023-01-11T15:26:18.322Z,0.70
2023-01-11T15:28:53.556Z,0.65
2023-01-11T15:31:34.078Z,0.50
2023-01-11T15:34:27.511Z,0.68
2023-01-11T15:37:03.527Z,0.60
2023-01-11T15:39:40.569Z,0.65
2023-01-11T15:42:16.461Z,0.50
2023-01-11T15:44:53.576Z,0.80
2023-01-11T15:47:34.668Z,0.70
2023-01-11T15:50:09.801Z,0.60
2023-01-11T15:52:54.340Z,0.60
2023-01-11T15:55:52.485Z,0.63
2023-01-11T15:58:32.934Z,0.50
2023-01-11T16:01:09.309Z,0.50
2023-01-11T16:03:52.035Z,0.80
2023-01-11T16:06:28.611Z,1.00
2023-01-11T16:08:59.126Z,1.10
2023-01-11T16:11:28.250Z,1.25
2023-01-11T16:13:58.364Z,0.80
2023-01-11T16:16:29.522Z,1.20
2023-01-11T16:19:01.815Z,1.17
2023-01-11T16:21:44.927Z,1.15
2023-01-11T16:24:18.007Z,0.95
2023-01-11T16:26:49.915Z,0.75
2023-01-11T16:29:26.852Z,1.05
2023-01-11T16:31:58.399Z,1.10
2023-01-11T16:34:26.960Z,1.75
2023-01-11T16:36:57.123Z,1.00
2023-01-11T16:39:31.482Z,2.22
2023-01-11T16:42:04.218Z,1.95
2023-01-11T16:44:42.418Z,1.23
2023-01-11T16:47:19.919Z,0.77
2023-01-11T16:50:12.492Z,0.70
2023-01-11T16:52:46.244Z,0.80
2023-01-11T16:55:18.691Z,0.55
2023-01-11T16:57:54.455Z,0.60
2023-01-11T17:00:32.860Z,0.63
2023-01-11T17:03:06.289Z,0.50
2023-01-11T17:05:33.640Z,0.70
2023-01-11T17:08:06.330Z,0.80
2023-01-11T17:10:36.576Z,0.70
2023-01-11T17:13:42.779Z,0.77
2023-01-11T17:16:27.707Z,0.88
2023-01-11T17:18:55.209Z,0.50
2023-01-11T17:21:32.458Z,0.70
2023-01-11T17:24:04.961Z,0.75
2023-01-11T17:26:41.605Z,0.60
2023-01-11T17:29:11.732Z,0.60
2023-01-11T17:31:43.571Z,0.60
2023-01-11T17:34:17.530Z,0.80
2023-01-11T17:36:45.607Z,0.68
2023-01-11T17:39:39.178Z,0.90
2023-01-11T17:42:26.377Z,0.50
2023-01-11T17:45:12.756Z,0.70
2023-01-11T17:48:08.793Z,0.65
2023-01-11T17:50:56.538Z,0.82
2023-01-11T17:53:52.771Z,0.70
2023-01-11T17:56:42.085Z,0.60
2023-01-11T17:59:12.612Z,0.63
2023-01-11T18:01:48.591Z,0.60
2023-01-11T18:04:22.720Z,0.60
2023-01-11T18:06:51.202Z,0.60
2023-01-11T18:09:26.444Z,0.90
2023-01-11T18:12:11.970Z,0.68
2023-01-11T18:14:42.314Z,0.63
2023-01-11T18:17:35.443Z,0.65
2023-01-11T18:20:14.686Z,0.95
2023-01-11T18:23:05.425Z,0.60
2023-01-11T18:25:36.063Z,0.60
2023-01-11T18:28:18.413Z,0.70
2023-01-11T18:30:59.626Z,0.60
2023-01-11T18:33:27.779Z,0.65
2023-01-11T18:36:00.443Z,0.70
2023-01-11T18:38:36.764Z,0.80
2023-01-11T18:41:26.435Z,0.93
2023-01-11T18:43:57.063Z,1.02
2023-01-11T18:46:25.356Z,0.50
2023-01-11T18:49:01.410Z,0.80
2023-01-11T18:51:48.423Z,0.90
2023-01-11T18:54:19.576Z,0.50
2023-01-11T18:56:47.123Z,0.90
2023-01-11T18:59:17.893Z,0.70
2023-01-11T19:02:01.303Z,0.60
2023-01-11T19:04:40.893Z,1.00
2023-01-11T19:07:14.087Z,0.73
2023-01-11T19:09:41.959Z,0.73
2023-01-11T19:12:13.227Z,0.77
2023-01-11T19:14:45.220Z,1.00
2023-01-11T19:17:17.173Z,0.68
2023-01-11T19:19:47.774Z,0.57
2023-01-11T19:22:15.088Z,0.70
2023-01-11T19:24:45.610Z,0.70
2023-01-11T19:27:13.862Z,0.90
2023-01-11T19:29:42.257Z,0.63
2023-01-11T19:32:15.053Z,0.70
2023-01-11T19:34:51.014Z,0.80
2023-01-11T19:37:21.246Z,0.90
2023-01-11T19:39:51.776Z,0.65
2023-01-11T19:42:22.381Z,0.65
2023-01-11T19:44:49.834Z,0.68
2023-01-11T19:47:21.682Z,0.60
2023-01-11T19:49:56.887Z,0.65
2023-01-11T19:52:27.053Z,0.70
2023-01-11T19:54:57.332Z,1.23
2023-01-11T19:57:30.901Z,0.80
2023-01-11T20:00:00.756Z,0.73
2023-01-11T20:02:35.080Z,1.02
2023-01-11T20:05:05.578Z,0.98
2023-01-11T20:07:33.407Z,0.55
2023-01-11T20:10:10.289Z,0.60
2023-01-11T20:12:38.086Z,0.70
2023-01-11T20:15:12.129Z,0.63
2023-01-11T20:17:39.114Z,1.00
2023-01-11T20:20:15.100Z,0.73
2023-01-11T20:22:48.532Z,0.85
2023-01-11T20:25:19.236Z,0.50
2023-01-11T20:27:52.526Z,0.88
2023-01-11T20:30:20.729Z,0.70
2023-01-11T20:32:51.300Z,0.60
2023-01-11T20:35:21.550Z,1.05
2023-01-11T20:37:54.962Z,0.80
2023-01-11T20:40:25.457Z,0.70
2023-01-11T20:42:59.383Z,0.80
2023-01-11T20:45:32.839Z,0.73
2023-01-11T20:48:03.606Z,0.98
2023-01-11T20:50:36.393Z,1.00
2023-01-11T20:53:07.174Z,0.93
2023-01-11T20:55:40.439Z,0.90
2023-01-11T20:58:13.488Z,0.82
2023-01-11T21:00:48.949Z,0.88
2023-01-11T21:03:20.484Z,0.60
2023-01-11T21:05:52.621Z,0.95
2023-01-11T21:08:26.016Z,1.08
2023-01-11T21:10:53.360Z,0.98
2023-01-11T21:13:24.257Z,1.02
2023-01-11T21:16:00.433Z,1.20
2023-01-11T21:18:35.320Z,0.68
2023-01-11T21:21:11.332Z,1.15
2023-01-11T21:23:42.713Z,0.93
2023-01-11T21:26:14.280Z,1.33
2023-01-11T21:28:47.055Z,1.27
2023-01-11T21:31:21.670Z,0.73
2023-01-11T21:33:51.457Z,1.20
2023-01-11T21:36:28.902Z,1.33
2023-01-11T21:39:03.102Z,1.10
2023-01-11T21:41:52.720Z,1.05
2023-01-11T21:44:20.749Z,1.00
2023-01-11T21:46:48.065Z,1.00
2023-01-11T21:52:02.358Z,1.15
2023-01-11T21:54:32.610Z,1.08
2023-01-11T21:56:59.974Z,1.10
2023-01-11T21:59:36.052Z,1.15
2023-01-11T22:02:10.202Z,1.25
2023-01-11T22:04:43.212Z,1.40
2023-01-11T22:07:10.821Z,1.10
2023-01-11T22:10:03.305Z,0.70
2023-01-11T22:12:39.526Z,1.30
2023-01-11T22:15:09.496Z,1.25
2023-01-11T22:17:40.150Z,0.80
2023-01-11T22:20:15.399Z,1.02
2023-01-11T22:22:48.162Z,0.80
2023-01-11T22:25:21.675Z,1.23
2023-01-11T22:27:51.990Z,0.85
2023-01-11T22:30:25.273Z,0.98
2023-01-11T22:35:42.010Z,1.20
2023-01-11T22:38:13.606Z,0.95
2023-01-11T22:40:49.569Z,1.00
2023-01-11T22:43:27.878Z,0.70
2023-01-11T22:45:58.186Z,0.63
2023-01-11T22:48:29.180Z,1.15
2023-01-11T22:50:58.937Z,0.90
2023-01-11T22:53:26.618Z,0.70
2023-01-11T22:55:59.413Z,0.88
2023-01-11T22:58:30.725Z,0.90
2023-01-11T23:01:22.068Z,0.90
2023-01-11T23:03:49.706Z,0.75
2023-01-11T23:06:25.381Z,1.27
2023-01-11T23:08:53.200Z,0.80
2023-01-11T23:11:42.932Z,1.35
2023-01-11T23:14:16.206Z,1.00
2023-01-11T23:16:48.389Z,0.93
2023-01-11T23:19:23.125Z,0.85
2023-01-11T23:21:51.178Z,0.60
2023-01-11T23:24:24.835Z,1.20
2023-01-11T23:26:55.237Z,0.80
2023-01-11T23:29:26.003Z,0.70
2023-01-11T23:31:55.294Z,1.23
2023-01-11T23:34:28.697Z,0.90
2023-01-11T23:36:56.651Z,0.90
2023-01-11T23:39:27.406Z,1.75
2023-01-11T23:42:14.055Z,0.60
2023-01-11T23:44:44.219Z,1.40
2023-01-11T23:47:29.946Z,0.77
2023-01-11T23:49:58.297Z,0.70
2023-01-11T23:52:37.967Z,1.25
2023-01-11T23:55:10.172Z,0.70
2023-01-11T23:58:02.993Z,1.20
